sensor_id;sensor_type;location;lat;lon;timestamp;P1;durP1;ratioP1;P2;durP2;ratioP2
56255;SDS011;57229;51.432;-2.598;2024-02-28T00:02:24;22.50;;;12.38;;
56255;SDS011;57229;51.432;-2.598;2024-02-28T00:04:49;21.60;;;12.10;;
56255;SDS011;57229;51.432;-2.598;2024-02-28T00:07:15;22.80;;;12.35;;
56255;SDS011;57229;51.432;-2.598;2024-02-28T00:09:42;26.80;;;12.23;;
56255;SDS011;57229;51.432;-2.598;2024-02-28T00:12:08;26.17;;;13.13;;
56255;SDS011;57229;51.432;-2.598;2024-02-28T00:14:34;24.52;;;13.02;;
56255;SDS011;57229;51.432;-2.598;2024-02-28T00:17:00;27.23;;;13.60;;
56255;SDS011;57229;51.432;-2.598;2024-02-28T00:19:26;29.00;;;14.13;;
56255;SDS011;57229;51.432;-2.598;2024-02-28T00:21:51;28.10;;;12.68;;
56255;SDS011;57229;51.432;-2.598;2024-02-28T00:24:17;25.60;;;12.68;;
56255;SDS011;57229;51.432;-2.598;2024-02-28T00:26:43;24.38;;;12.63;;
56255;SDS011;57229;51.432;-2.598;2024-02-28T00:29:09;26.10;;;13.07;;
56255;SDS011;57229;51.432;-2.598;2024-02-28T00:31:35;24.42;;;13.18;;
56255;SDS011;57229;51.432;-2.598;2024-02-28T00:34:01;26.90;;;13.18;;
56255;SDS011;57229;51.432;-2.598;2024-02-28T00:36:27;28.58;;;13.55;;
56255;SDS011;57229;51.432;-2.598;2024-02-28T00:38:52;25.50;;;12.70;;
56255;SDS011;57229;51.432;-2.598;2024-02-28T00:41:18;27.95;;;12.93;;
56255;SDS011;57229;51.432;-2.598;2024-02-28T00:43:43;29.48;;;12.63;;
56255;SDS011;57229;51.432;-2.598;2024-02-28T00:46:09;31.35;;;11.23;;
56255;SDS011;57229;51.432;-2.598;2024-02-28T00:48:39;37.30;;;11.30;;
56255;SDS011;57229;51.432;-2.598;2024-02-28T00:51:04;39.97;;;11.00;;
56255;SDS011;57229;51.432;-2.598;2024-02-28T00:53:30;41.42;;;10.55;;
56255;SDS011;57229;51.432;-2.598;2024-02-28T00:55:56;41.83;;;10.68;;
56255;SDS011;57229;51.432;-2.598;2024-02-28T00:58:22;36.72;;;10.68;;
56255;SDS011;57229;51.432;-2.598;2024-02-28T01:00:48;39.28;;;10.50;;
56255;SDS011;57229;51.432;-2.598;2024-02-28T01:03:14;28.52;;;10.05;;
56255;SDS011;57229;51.432;-2.598;2024-02-28T01:05:40;28.73;;;10.52;;
56255;SDS011;57229;51.432;-2.598;2024-02-28T01:08:06;30.05;;;12.00;;
56255;SDS011;57229;51.432;-2.598;2024-02-28T01:10:33;27.75;;;11.52;;
56255;SDS011;57229;51.432;-2.598;2024-02-28T01:12:59;31.63;;;12.38;;
56255;SDS011;57229;51.432;-2.598;2024-02-28T01:15:25;28.98;;;11.90;;
56255;SDS011;57229;51.432;-2.598;2024-02-28T01:17:50;30.00;;;12.00;;
56255;SDS011;57229;51.432;-2.598;2024-02-28T01:20:16;30.10;;;11.60;;
56255;SDS011;57229;51.432;-2.598;2024-02-28T01:22:42;27.67;;;10.57;;
56255;SDS011;57229;51.432;-2.598;2024-02-28T01:25:08;24.85;;;11.43;;
56255;SDS011;57229;51.432;-2.598;2024-02-28T01:27:34;22.67;;;11.00;;
56255;SDS011;57229;51.432;-2.598;2024-02-28T01:30:00;25.55;;;10.75;;
56255;SDS011;57229;51.432;-2.598;2024-02-28T01:32:27;23.63;;;10.45;;
56255;SDS011;57229;51.432;-2.598;2024-02-28T01:34:54;23.70;;;10.88;;
56255;SDS011;57229;51.432;-2.598;2024-02-28T01:37:24;21.52;;;11.15;;
56255;SDS011;57229;51.432;-2.598;2024-02-28T01:39:50;23.45;;;10.90;;
56255;SDS011;57229;51.432;-2.598;2024-02-28T01:42:16;24.98;;;10.65;;
56255;SDS011;57229;51.432;-2.598;2024-02-28T01:44:45;24.27;;;10.25;;
56255;SDS011;57229;51.432;-2.598;2024-02-28T01:47:13;23.90;;;10.63;;
56255;SDS011;57229;51.432;-2.598;2024-02-28T01:49:40;22.13;;;10.55;;
56255;SDS011;57229;51.432;-2.598;2024-02-28T01:52:07;21.63;;;9.90;;
56255;SDS011;57229;51.432;-2.598;2024-02-28T01:54:34;20.42;;;9.27;;
56255;SDS011;57229;51.432;-2.598;2024-02-28T01:57:00;25.92;;;9.98;;
56255;SDS011;57229;51.432;-2.598;2024-02-28T01:59:27;23.10;;;10.55;;
56255;SDS011;57229;51.432;-2.598;2024-02-28T02:01:54;25.85;;;10.13;;
56255;SDS011;57229;51.432;-2.598;2024-02-28T02:04:20;23.33;;;10.40;;
56255;SDS011;57229;51.432;-2.598;2024-02-28T02:06:47;26.45;;;11.05;;
56255;SDS011;57229;51.432;-2.598;2024-02-28T02:09:16;28.27;;;10.77;;
56255;SDS011;57229;51.432;-2.598;2024-02-28T02:11:42;29.05;;;10.75;;
56255;SDS011;57229;51.432;-2.598;2024-02-28T02:14:08;24.63;;;10.45;;
56255;SDS011;57229;51.432;-2.598;2024-02-28T02:16:34;28.27;;;11.73;;
56255;SDS011;57229;51.432;-2.598;2024-02-28T02:24:11;23.42;;;9.90;;
56255;SDS011;57229;51.432;-2.598;2024-02-28T02:26:36;28.42;;;10.65;;
56255;SDS011;57229;51.432;-2.598;2024-02-28T02:29:02;23.55;;;9.70;;
56255;SDS011;57229;51.432;-2.598;2024-02-28T02:31:28;24.92;;;10.13;;
56255;SDS011;57229;51.432;-2.598;2024-02-28T02:33:53;27.98;;;10.38;;
56255;SDS011;57229;51.432;-2.598;2024-02-28T02:36:20;27.77;;;11.02;;
56255;SDS011;57229;51.432;-2.598;2024-02-28T02:38:46;28.98;;;10.77;;
56255;SDS011;57229;51.432;-2.598;2024-02-28T02:41:12;28.42;;;10.07;;
56255;SDS011;57229;51.432;-2.598;2024-02-28T02:43:37;34.20;;;10.48;;
56255;SDS011;57229;51.432;-2.598;2024-02-28T02:46:03;28.60;;;9.88;;
56255;SDS011;57229;51.432;-2.598;2024-02-28T02:48:28;26.85;;;10.07;;
56255;SDS011;57229;51.432;-2.598;2024-02-28T02:50:54;27.95;;;10.55;;
56255;SDS011;57229;51.432;-2.598;2024-02-28T02:53:20;26.73;;;9.48;;
56255;SDS011;57229;51.432;-2.598;2024-02-28T02:55:46;28.45;;;10.75;;
56255;SDS011;57229;51.432;-2.598;2024-02-28T02:58:11;30.90;;;10.05;;
56255;SDS011;57229;51.432;-2.598;2024-02-28T03:00:37;26.80;;;9.68;;
56255;SDS011;57229;51.432;-2.598;2024-02-28T03:03:02;22.00;;;9.18;;
56255;SDS011;57229;51.432;-2.598;2024-02-28T03:05:28;23.67;;;9.40;;
56255;SDS011;57229;51.432;-2.598;2024-02-28T03:07:54;30.60;;;10.02;;
56255;SDS011;57229;51.432;-2.598;2024-02-28T03:10:19;22.27;;;9.52;;
56255;SDS011;57229;51.432;-2.598;2024-02-28T03:12:45;24.33;;;9.45;;
56255;SDS011;57229;51.432;-2.598;2024-02-28T03:15:10;31.40;;;10.23;;
56255;SDS011;57229;51.432;-2.598;2024-02-28T03:17:36;30.77;;;10.18;;
56255;SDS011;57229;51.432;-2.598;2024-02-28T03:20:02;23.67;;;10.05;;
56255;SDS011;57229;51.432;-2.598;2024-02-28T04:22:01;31.05;;;10.00;;
56255;SDS011;57229;51.432;-2.598;2024-02-28T04:24:27;22.63;;;10.57;;
56255;SDS011;57229;51.432;-2.598;2024-02-28T04:26:52;24.48;;;9.90;;
56255;SDS011;57229;51.432;-2.598;2024-02-28T04:29:18;24.42;;;9.15;;
56255;SDS011;57229;51.432;-2.598;2024-02-28T04:31:44;23.35;;;9.35;;
56255;SDS011;57229;51.432;-2.598;2024-02-28T04:34:09;25.55;;;8.90;;
56255;SDS011;57229;51.432;-2.598;2024-02-28T04:36:35;18.77;;;8.95;;
56255;SDS011;57229;51.432;-2.598;2024-02-28T04:39:00;16.83;;;8.55;;
56255;SDS011;57229;51.432;-2.598;2024-02-28T04:41:27;19.92;;;8.45;;
56255;SDS011;57229;51.432;-2.598;2024-02-28T04:43:53;19.38;;;8.63;;
56255;SDS011;57229;51.432;-2.598;2024-02-28T04:46:18;20.40;;;9.30;;
56255;SDS011;57229;51.432;-2.598;2024-02-28T04:48:44;28.30;;;9.30;;
56255;SDS011;57229;51.432;-2.598;2024-02-28T04:51:10;23.70;;;9.02;;
56255;SDS011;57229;51.432;-2.598;2024-02-28T04:53:35;22.45;;;9.70;;
56255;SDS011;57229;51.432;-2.598;2024-02-28T04:56:01;18.25;;;8.73;;
56255;SDS011;57229;51.432;-2.598;2024-02-28T04:58:27;20.08;;;9.52;;
56255;SDS011;57229;51.432;-2.598;2024-02-28T05:00:52;27.00;;;9.27;;
56255;SDS011;57229;51.432;-2.598;2024-02-28T05:03:18;20.75;;;9.75;;
56255;SDS011;57229;51.432;-2.598;2024-02-28T05:05:44;26.25;;;9.38;;
56255;SDS011;57229;51.432;-2.598;2024-02-28T05:08:09;16.60;;;8.98;;
56255;SDS011;57229;51.432;-2.598;2024-02-28T05:10:35;25.15;;;9.25;;
56255;SDS011;57229;51.432;-2.598;2024-02-28T05:13:01;30.23;;;9.98;;
56255;SDS011;57229;51.432;-2.598;2024-02-28T05:15:28;19.77;;;9.57;;
56255;SDS011;57229;51.432;-2.598;2024-02-28T05:17:54;22.85;;;9.02;;
56255;SDS011;57229;51.432;-2.598;2024-02-28T05:20:20;26.13;;;9.40;;
56255;SDS011;57229;51.432;-2.598;2024-02-28T05:22:45;27.05;;;8.68;;
56255;SDS011;57229;51.432;-2.598;2024-02-28T05:25:11;30.85;;;9.63;;
56255;SDS011;57229;51.432;-2.598;2024-02-28T05:27:37;22.23;;;9.50;;
56255;SDS011;57229;51.432;-2.598;2024-02-28T05:30:02;21.25;;;8.93;;
56255;SDS011;57229;51.432;-2.598;2024-02-28T05:32:31;28.27;;;9.35;;
56255;SDS011;57229;51.432;-2.598;2024-02-28T05:34:57;24.77;;;9.32;;
56255;SDS011;57229;51.432;-2.598;2024-02-28T05:37:23;17.42;;;8.52;;
56255;SDS011;57229;51.432;-2.598;2024-02-28T05:39:50;31.10;;;9.70;;
56255;SDS011;57229;51.432;-2.598;2024-02-28T05:42:15;25.08;;;9.27;;
56255;SDS011;57229;51.432;-2.598;2024-02-28T05:44:46;28.63;;;9.38;;
56255;SDS011;57229;51.432;-2.598;2024-02-28T05:47:13;21.73;;;9.07;;
56255;SDS011;57229;51.432;-2.598;2024-02-28T05:49:38;22.90;;;9.38;;
56255;SDS011;57229;51.432;-2.598;2024-02-28T05:52:05;29.58;;;10.10;;
56255;SDS011;57229;51.432;-2.598;2024-02-28T05:54:30;18.60;;;9.35;;
56255;SDS011;57229;51.432;-2.598;2024-02-28T05:56:56;19.63;;;9.35;;
56255;SDS011;57229;51.432;-2.598;2024-02-28T05:59:22;28.77;;;9.05;;
56255;SDS011;57229;51.432;-2.598;2024-02-28T06:01:50;22.02;;;9.40;;
56255;SDS011;57229;51.432;-2.598;2024-02-28T06:04:15;22.40;;;10.00;;
56255;SDS011;57229;51.432;-2.598;2024-02-28T06:06:41;25.10;;;8.77;;
56255;SDS011;57229;51.432;-2.598;2024-02-28T06:09:07;21.88;;;8.82;;
56255;SDS011;57229;51.432;-2.598;2024-02-28T06:11:33;18.50;;;8.85;;
56255;SDS011;57229;51.432;-2.598;2024-02-28T06:13:58;25.30;;;8.30;;
56255;SDS011;57229;51.432;-2.598;2024-02-28T06:16:24;19.73;;;8.50;;
56255;SDS011;57229;51.432;-2.598;2024-02-28T06:18:50;22.67;;;8.82;;
56255;SDS011;57229;51.432;-2.598;2024-02-28T06:21:15;26.33;;;10.10;;
56255;SDS011;57229;51.432;-2.598;2024-02-28T06:23:41;21.45;;;8.88;;
56255;SDS011;57229;51.432;-2.598;2024-02-28T06:26:06;25.13;;;8.57;;
56255;SDS011;57229;51.432;-2.598;2024-02-28T06:28:39;36.10;;;9.35;;
56255;SDS011;57229;51.432;-2.598;2024-02-28T06:31:11;32.22;;;9.80;;
56255;SDS011;57229;51.432;-2.598;2024-02-28T06:33:38;26.52;;;9.27;;
56255;SDS011;57229;51.432;-2.598;2024-02-28T06:36:04;27.77;;;9.50;;
56255;SDS011;57229;51.432;-2.598;2024-02-28T06:38:29;31.17;;;9.70;;
56255;SDS011;57229;51.432;-2.598;2024-02-28T06:40:55;19.73;;;8.65;;
56255;SDS011;57229;51.432;-2.598;2024-02-28T06:43:20;24.55;;;9.50;;
56255;SDS011;57229;51.432;-2.598;2024-02-28T06:45:46;27.73;;;9.93;;
56255;SDS011;57229;51.432;-2.598;2024-02-28T06:48:12;25.67;;;9.10;;
56255;SDS011;57229;51.432;-2.598;2024-02-28T06:50:37;33.03;;;9.75;;
56255;SDS011;57229;51.432;-2.598;2024-02-28T06:53:03;22.98;;;9.20;;
56255;SDS011;57229;51.432;-2.598;2024-02-28T06:55:29;30.48;;;9.52;;
56255;SDS011;57229;51.432;-2.598;2024-02-28T06:57:54;23.60;;;9.40;;
56255;SDS011;57229;51.432;-2.598;2024-02-28T07:00:21;28.20;;;10.70;;
56255;SDS011;57229;51.432;-2.598;2024-02-28T07:02:47;28.48;;;9.57;;
56255;SDS011;57229;51.432;-2.598;2024-02-28T07:05:13;24.58;;;9.10;;
56255;SDS011;57229;51.432;-2.598;2024-02-28T07:07:38;22.08;;;9.38;;
56255;SDS011;57229;51.432;-2.598;2024-02-28T07:10:04;20.73;;;9.50;;
56255;SDS011;57229;51.432;-2.598;2024-02-28T07:12:30;25.35;;;9.25;;
56255;SDS011;57229;51.432;-2.598;2024-02-28T07:14:56;22.23;;;9.18;;
56255;SDS011;57229;51.432;-2.598;2024-02-28T07:17:22;26.48;;;10.00;;
56255;SDS011;57229;51.432;-2.598;2024-02-28T07:19:47;28.52;;;8.82;;
56255;SDS011;57229;51.432;-2.598;2024-02-28T07:22:13;25.50;;;9.15;;
56255;SDS011;57229;51.432;-2.598;2024-02-28T07:24:38;23.23;;;9.32;;
56255;SDS011;57229;51.432;-2.598;2024-02-28T07:27:04;18.60;;;8.90;;
56255;SDS011;57229;51.432;-2.598;2024-02-28T07:29:30;32.58;;;10.40;;
56255;SDS011;57229;51.432;-2.598;2024-02-28T07:31:55;19.55;;;10.02;;
56255;SDS011;57229;51.432;-2.598;2024-02-28T07:34:21;22.65;;;9.50;;
56255;SDS011;57229;51.432;-2.598;2024-02-28T07:36:47;23.85;;;10.18;;
56255;SDS011;57229;51.432;-2.598;2024-02-28T07:39:13;24.85;;;9.75;;
56255;SDS011;57229;51.432;-2.598;2024-02-28T07:41:38;31.58;;;9.68;;
56255;SDS011;57229;51.432;-2.598;2024-02-28T07:44:06;23.13;;;10.27;;
56255;SDS011;57229;51.432;-2.598;2024-02-28T07:46:32;26.58;;;10.63;;
56255;SDS011;57229;51.432;-2.598;2024-02-28T07:48:58;21.10;;;9.85;;
56255;SDS011;57229;51.432;-2.598;2024-02-28T07:51:25;29.55;;;10.07;;
56255;SDS011;57229;51.432;-2.598;2024-02-28T07:53:51;23.70;;;10.38;;
56255;SDS011;57229;51.432;-2.598;2024-02-28T07:56:17;29.30;;;10.25;;
56255;SDS011;57229;51.432;-2.598;2024-02-28T07:58:44;28.33;;;10.55;;
56255;SDS011;57229;51.432;-2.598;2024-02-28T08:01:10;27.27;;;10.07;;
56255;SDS011;57229;51.432;-2.598;2024-02-28T08:03:36;41.05;;;10.70;;
56255;SDS011;57229;51.432;-2.598;2024-02-28T08:06:02;22.25;;;10.68;;
56255;SDS011;57229;51.432;-2.598;2024-02-28T08:08:27;27.67;;;10.32;;
56255;SDS011;57229;51.432;-2.598;2024-02-28T08:10:53;26.92;;;10.63;;
56255;SDS011;57229;51.432;-2.598;2024-02-28T08:13:19;25.00;;;11.30;;
56255;SDS011;57229;51.432;-2.598;2024-02-28T08:15:45;23.83;;;10.70;;
56255;SDS011;57229;51.432;-2.598;2024-02-28T08:18:11;21.92;;;9.82;;
56255;SDS011;57229;51.432;-2.598;2024-02-28T08:20:37;22.35;;;10.80;;
56255;SDS011;57229;51.432;-2.598;2024-02-28T08:23:03;29.33;;;10.88;;
56255;SDS011;57229;51.432;-2.598;2024-02-28T08:25:29;20.25;;;9.82;;
56255;SDS011;57229;51.432;-2.598;2024-02-28T08:27:55;26.25;;;10.40;;
56255;SDS011;57229;51.432;-2.598;2024-02-28T08:30:21;30.63;;;10.07;;
56255;SDS011;57229;51.432;-2.598;2024-02-28T08:32:47;22.45;;;9.90;;
56255;SDS011;57229;51.432;-2.598;2024-02-28T08:35:13;27.65;;;10.00;;
56255;SDS011;57229;51.432;-2.598;2024-02-28T08:37:39;22.92;;;9.52;;
56255;SDS011;57229;51.432;-2.598;2024-02-28T08:40:04;28.20;;;10.18;;
56255;SDS011;57229;51.432;-2.598;2024-02-28T08:42:31;25.08;;;10.00;;
56255;SDS011;57229;51.432;-2.598;2024-02-28T08:44:57;21.08;;;9.85;;
56255;SDS011;57229;51.432;-2.598;2024-02-28T08:47:24;20.17;;;9.55;;
56255;SDS011;57229;51.432;-2.598;2024-02-28T08:49:51;23.25;;;8.40;;
56255;SDS011;57229;51.432;-2.598;2024-02-28T08:52:17;22.98;;;8.52;;
56255;SDS011;57229;51.432;-2.598;2024-02-28T08:54:43;21.63;;;9.40;;
56255;SDS011;57229;51.432;-2.598;2024-02-28T08:57:08;30.17;;;8.77;;
56255;SDS011;57229;51.432;-2.598;2024-02-28T08:59:34;24.98;;;9.77;;
56255;SDS011;57229;51.432;-2.598;2024-02-28T09:02:00;27.60;;;9.23;;
56255;SDS011;57229;51.432;-2.598;2024-02-28T09:04:25;19.92;;;8.80;;
56255;SDS011;57229;51.432;-2.598;2024-02-28T09:06:51;21.73;;;9.45;;
56255;SDS011;57229;51.432;-2.598;2024-02-28T09:09:18;17.65;;;9.27;;
56255;SDS011;57229;51.432;-2.598;2024-02-28T09:11:44;22.88;;;9.68;;
56255;SDS011;57229;51.432;-2.598;2024-02-28T09:14:09;25.05;;;9.00;;
56255;SDS011;57229;51.432;-2.598;2024-02-28T09:16:35;23.88;;;8.63;;
56255;SDS011;57229;51.432;-2.598;2024-02-28T09:19:00;24.90;;;8.63;;
56255;SDS011;57229;51.432;-2.598;2024-02-28T09:21:27;26.60;;;8.05;;
56255;SDS011;57229;51.432;-2.598;2024-02-28T09:23:53;22.75;;;8.07;;
56255;SDS011;57229;51.432;-2.598;2024-02-28T09:26:18;25.75;;;8.77;;
56255;SDS011;57229;51.432;-2.598;2024-02-28T09:28:44;27.60;;;8.60;;
56255;SDS011;57229;51.432;-2.598;2024-02-28T09:31:10;24.00;;;7.10;;
56255;SDS011;57229;51.432;-2.598;2024-02-28T09:33:36;24.35;;;7.60;;
56255;SDS011;57229;51.432;-2.598;2024-02-28T09:36:02;21.52;;;8.25;;
56255;SDS011;57229;51.432;-2.598;2024-02-28T09:38:29;18.38;;;7.82;;
56255;SDS011;57229;51.432;-2.598;2024-02-28T09:41:06;21.05;;;8.25;;
56255;SDS011;57229;51.432;-2.598;2024-02-28T09:43:56;19.52;;;8.07;;
56255;SDS011;57229;51.432;-2.598;2024-02-28T09:46:22;14.82;;;7.35;;
56255;SDS011;57229;51.432;-2.598;2024-02-28T09:48:48;26.20;;;7.78;;
56255;SDS011;57229;51.432;-2.598;2024-02-28T09:51:15;20.25;;;7.28;;
56255;SDS011;57229;51.432;-2.598;2024-02-28T09:53:43;22.88;;;6.85;;
56255;SDS011;57229;51.432;-2.598;2024-02-28T09:56:09;16.60;;;7.20;;
56255;SDS011;57229;51.432;-2.598;2024-02-28T09:58:35;19.35;;;7.22;;
56255;SDS011;57229;51.432;-2.598;2024-02-28T10:01:04;17.90;;;7.47;;
56255;SDS011;57229;51.432;-2.598;2024-02-28T10:03:34;17.58;;;7.25;;
56255;SDS011;57229;51.432;-2.598;2024-02-28T10:06:01;16.67;;;7.10;;
56255;SDS011;57229;51.432;-2.598;2024-02-28T10:08:27;18.15;;;7.82;;
56255;SDS011;57229;51.432;-2.598;2024-02-28T10:10:54;17.98;;;6.93;;
56255;SDS011;57229;51.432;-2.598;2024-02-28T10:13:21;16.80;;;7.10;;
56255;SDS011;57229;51.432;-2.598;2024-02-28T10:15:49;18.92;;;8.02;;
56255;SDS011;57229;51.432;-2.598;2024-02-28T10:18:15;14.60;;;7.45;;
56255;SDS011;57229;51.432;-2.598;2024-02-28T10:20:41;15.50;;;7.40;;
56255;SDS011;57229;51.432;-2.598;2024-02-28T10:23:07;23.40;;;7.55;;
56255;SDS011;57229;51.432;-2.598;2024-02-28T10:25:46;10.63;;;6.80;;
56255;SDS011;57229;51.432;-2.598;2024-02-28T10:28:12;14.50;;;7.15;;
56255;SDS011;57229;51.432;-2.598;2024-02-28T10:30:43;19.73;;;6.90;;
56255;SDS011;57229;51.432;-2.598;2024-02-28T10:33:12;14.07;;;6.75;;
56255;SDS011;57229;51.432;-2.598;2024-02-28T10:35:41;13.95;;;7.00;;
56255;SDS011;57229;51.432;-2.598;2024-02-28T10:38:17;13.18;;;5.95;;
56255;SDS011;57229;51.432;-2.598;2024-02-28T10:41:09;7.07;;;6.10;;
56255;SDS011;57229;51.432;-2.598;2024-02-28T10:43:38;13.65;;;6.50;;
56255;SDS011;57229;51.432;-2.598;2024-02-28T10:46:05;18.10;;;6.15;;
56255;SDS011;57229;51.432;-2.598;2024-02-28T10:48:33;18.02;;;6.25;;
56255;SDS011;57229;51.432;-2.598;2024-02-28T10:50:58;13.55;;;5.68;;
56255;SDS011;57229;51.432;-2.598;2024-02-28T10:53:37;12.95;;;5.75;;
56255;SDS011;57229;51.432;-2.598;2024-02-28T10:56:06;10.95;;;5.63;;
56255;SDS011;57229;51.432;-2.598;2024-02-28T10:58:36;11.77;;;6.22;;
56255;SDS011;57229;51.432;-2.598;2024-02-28T11:01:04;14.07;;;6.18;;
56255;SDS011;57229;51.432;-2.598;2024-02-28T11:03:31;17.88;;;6.50;;
56255;SDS011;57229;51.432;-2.598;2024-02-28T11:05:57;13.40;;;6.25;;
56255;SDS011;57229;51.432;-2.598;2024-02-28T11:08:23;11.40;;;5.70;;
56255;SDS011;57229;51.432;-2.598;2024-02-28T11:11:01;9.00;;;5.63;;
56255;SDS011;57229;51.432;-2.598;2024-02-28T11:13:52;12.40;;;6.25;;
56255;SDS011;57229;51.432;-2.598;2024-02-28T11:16:28;12.98;;;6.30;;
56255;SDS011;57229;51.432;-2.598;2024-02-28T11:19:18;11.20;;;6.15;;
56255;SDS011;57229;51.432;-2.598;2024-02-28T11:22:18;10.48;;;6.07;;
56255;SDS011;57229;51.432;-2.598;2024-02-28T11:24:44;11.10;;;6.05;;
56255;SDS011;57229;51.432;-2.598;2024-02-28T11:27:11;10.27;;;6.20;;
56255;SDS011;57229;51.432;-2.598;2024-02-28T11:29:40;10.82;;;5.93;;
56255;SDS011;57229;51.432;-2.598;2024-02-28T11:32:07;15.48;;;6.13;;
56255;SDS011;57229;51.432;-2.598;2024-02-28T11:34:35;12.02;;;5.82;;
56255;SDS011;57229;51.432;-2.598;2024-02-28T11:37:02;7.47;;;5.88;;
56255;SDS011;57229;51.432;-2.598;2024-02-28T11:39:28;10.35;;;6.00;;
56255;SDS011;57229;51.432;-2.598;2024-02-28T11:42:07;9.68;;;6.03;;
56255;SDS011;57229;51.432;-2.598;2024-02-28T11:44:40;10.43;;;6.45;;
56255;SDS011;57229;51.432;-2.598;2024-02-28T11:47:09;12.48;;;6.85;;
56255;SDS011;57229;51.432;-2.598;2024-02-28T11:49:36;12.77;;;6.93;;
56255;SDS011;57229;51.432;-2.598;2024-02-28T11:52:02;8.65;;;6.20;;
56255;SDS011;57229;51.432;-2.598;2024-02-28T11:54:29;8.50;;;6.13;;
56255;SDS011;57229;51.432;-2.598;2024-02-28T11:56:55;10.60;;;6.15;;
56255;SDS011;57229;51.432;-2.598;2024-02-28T11:59:20;11.20;;;7.10;;
56255;SDS011;57229;51.432;-2.598;2024-02-28T12:01:46;10.25;;;7.00;;
56255;SDS011;57229;51.432;-2.598;2024-02-28T12:04:12;11.82;;;6.75;;
56255;SDS011;57229;51.432;-2.598;2024-02-28T12:06:38;10.75;;;6.57;;
56255;SDS011;57229;51.432;-2.598;2024-02-28T12:09:08;10.05;;;6.90;;
56255;SDS011;57229;51.432;-2.598;2024-02-28T12:11:37;10.63;;;7.03;;
56255;SDS011;57229;51.432;-2.598;2024-02-28T12:14:03;9.07;;;6.55;;
56255;SDS011;57229;51.432;-2.598;2024-02-28T12:16:34;10.68;;;6.53;;
56255;SDS011;57229;51.432;-2.598;2024-02-28T12:19:03;12.63;;;6.65;;
56255;SDS011;57229;51.432;-2.598;2024-02-28T12:21:32;12.20;;;6.68;;
56255;SDS011;57229;51.432;-2.598;2024-02-28T12:23:58;20.23;;;6.65;;
56255;SDS011;57229;51.432;-2.598;2024-02-28T12:26:24;11.35;;;6.63;;
56255;SDS011;57229;51.432;-2.598;2024-02-28T12:28:49;9.15;;;6.10;;
56255;SDS011;57229;51.432;-2.598;2024-02-28T12:31:15;12.05;;;6.43;;
56255;SDS011;57229;51.432;-2.598;2024-02-28T12:33:41;9.48;;;5.88;;
56255;SDS011;57229;51.432;-2.598;2024-02-28T12:36:07;8.50;;;5.95;;
56255;SDS011;57229;51.432;-2.598;2024-02-28T12:38:33;6.97;;;6.05;;
56255;SDS011;57229;51.432;-2.598;2024-02-28T12:40:59;11.05;;;6.22;;
56255;SDS011;57229;51.432;-2.598;2024-02-28T12:43:24;8.82;;;6.07;;
56255;SDS011;57229;51.432;-2.598;2024-02-28T12:45:52;9.27;;;6.00;;
56255;SDS011;57229;51.432;-2.598;2024-02-28T12:48:22;8.00;;;5.57;;
56255;SDS011;57229;51.432;-2.598;2024-02-28T12:51:03;12.82;;;6.00;;
56255;SDS011;57229;51.432;-2.598;2024-02-28T12:53:30;13.10;;;5.78;;
56255;SDS011;57229;51.432;-2.598;2024-02-28T12:55:55;7.97;;;5.57;;
56255;SDS011;57229;51.432;-2.598;2024-02-28T12:58:21;9.38;;;5.30;;
56255;SDS011;57229;51.432;-2.598;2024-02-28T13:00:48;18.95;;;5.90;;
56255;SDS011;57229;51.432;-2.598;2024-02-28T13:03:14;10.48;;;5.57;;
56255;SDS011;57229;51.432;-2.598;2024-02-28T13:05:41;14.55;;;5.72;;
56255;SDS011;57229;51.432;-2.598;2024-02-28T13:08:06;7.28;;;4.95;;
56255;SDS011;57229;51.432;-2.598;2024-02-28T13:10:32;5.32;;;4.82;;
56255;SDS011;57229;51.432;-2.598;2024-02-28T13:13:01;9.75;;;5.18;;
56255;SDS011;57229;51.432;-2.598;2024-02-28T13:15:27;8.93;;;5.50;;
56255;SDS011;57229;51.432;-2.598;2024-02-28T13:17:53;4.93;;;4.60;;
56255;SDS011;57229;51.432;-2.598;2024-02-28T13:20:18;5.07;;;4.68;;
56255;SDS011;57229;51.432;-2.598;2024-02-28T13:22:44;5.53;;;5.00;;
56255;SDS011;57229;51.432;-2.598;2024-02-28T13:25:11;5.32;;;4.88;;
56255;SDS011;57229;51.432;-2.598;2024-02-28T13:27:36;6.05;;;4.80;;
56255;SDS011;57229;51.432;-2.598;2024-02-28T13:30:03;5.90;;;4.70;;
56255;SDS011;57229;51.432;-2.598;2024-02-28T13:32:29;4.75;;;4.28;;
56255;SDS011;57229;51.432;-2.598;2024-02-28T13:34:54;5.43;;;4.60;;
56255;SDS011;57229;51.432;-2.598;2024-02-28T13:37:20;5.32;;;4.45;;
56255;SDS011;57229;51.432;-2.598;2024-02-28T13:39:46;5.53;;;4.38;;
56255;SDS011;57229;51.432;-2.598;2024-02-28T13:42:12;4.68;;;4.35;;
56255;SDS011;57229;51.432;-2.598;2024-02-28T13:44:38;5.20;;;4.78;;
56255;SDS011;57229;51.432;-2.598;2024-02-28T13:47:05;4.93;;;4.50;;
56255;SDS011;57229;51.432;-2.598;2024-02-28T13:49:31;4.93;;;4.57;;
56255;SDS011;57229;51.432;-2.598;2024-02-28T13:51:56;4.63;;;4.32;;
56255;SDS011;57229;51.432;-2.598;2024-02-28T13:54:22;6.13;;;4.50;;
56255;SDS011;57229;51.432;-2.598;2024-02-28T13:56:48;4.88;;;4.45;;
56255;SDS011;57229;51.432;-2.598;2024-02-28T13:59:13;5.72;;;4.60;;
56255;SDS011;57229;51.432;-2.598;2024-02-28T14:01:39;5.22;;;3.83;;
56255;SDS011;57229;51.432;-2.598;2024-02-28T14:04:05;5.00;;;4.50;;
56255;SDS011;57229;51.432;-2.598;2024-02-28T14:06:30;4.03;;;3.72;;
56255;SDS011;57229;51.432;-2.598;2024-02-28T14:08:56;4.90;;;4.50;;
56255;SDS011;57229;51.432;-2.598;2024-02-28T14:11:22;4.10;;;3.65;;
56255;SDS011;57229;51.432;-2.598;2024-02-28T14:13:48;4.10;;;3.80;;
56255;SDS011;57229;51.432;-2.598;2024-02-28T14:16:13;4.22;;;3.92;;
56255;SDS011;57229;51.432;-2.598;2024-02-28T14:18:40;4.63;;;4.22;;
56255;SDS011;57229;51.432;-2.598;2024-02-28T14:21:05;6.03;;;5.28;;
56255;SDS011;57229;51.432;-2.598;2024-02-28T14:23:31;10.30;;;4.93;;
56255;SDS011;57229;51.432;-2.598;2024-02-28T14:25:57;4.50;;;4.20;;
56255;SDS011;57229;51.432;-2.598;2024-02-28T14:28:22;11.20;;;4.78;;
56255;SDS011;57229;51.432;-2.598;2024-02-28T14:30:49;5.15;;;4.68;;
56255;SDS011;57229;51.432;-2.598;2024-02-28T14:33:14;5.80;;;4.70;;
56255;SDS011;57229;51.432;-2.598;2024-02-28T14:35:41;5.60;;;4.90;;
56255;SDS011;57229;51.432;-2.598;2024-02-28T14:38:06;6.10;;;4.43;;
56255;SDS011;57229;51.432;-2.598;2024-02-28T14:40:32;5.30;;;4.47;;
56255;SDS011;57229;51.432;-2.598;2024-02-28T14:42:58;4.95;;;4.55;;
56255;SDS011;57229;51.432;-2.598;2024-02-28T14:45:23;5.03;;;4.53;;
56255;SDS011;57229;51.432;-2.598;2024-02-28T14:47:53;4.70;;;4.35;;
56255;SDS011;57229;51.432;-2.598;2024-02-28T14:50:18;5.57;;;5.00;;
56255;SDS011;57229;51.432;-2.598;2024-02-28T14:52:45;5.03;;;4.63;;
56255;SDS011;57229;51.432;-2.598;2024-02-28T14:55:11;5.03;;;4.57;;
56255;SDS011;57229;51.432;-2.598;2024-02-28T14:57:37;4.93;;;4.53;;
56255;SDS011;57229;51.432;-2.598;2024-02-28T15:00:03;5.00;;;4.60;;
56255;SDS011;57229;51.432;-2.598;2024-02-28T15:02:33;5.40;;;4.90;;
56255;SDS011;57229;51.432;-2.598;2024-02-28T15:04:59;4.97;;;4.57;;
56255;SDS011;57229;51.432;-2.598;2024-02-28T15:07:25;5.30;;;4.80;;
56255;SDS011;57229;51.432;-2.598;2024-02-28T15:09:51;5.10;;;4.60;;
56255;SDS011;57229;51.432;-2.598;2024-02-28T15:12:17;5.20;;;4.80;;
56255;SDS011;57229;51.432;-2.598;2024-02-28T15:14:43;5.28;;;4.88;;
56255;SDS011;57229;51.432;-2.598;2024-02-28T15:17:08;4.60;;;4.30;;
56255;SDS011;57229;51.432;-2.598;2024-02-28T15:19:34;5.10;;;4.70;;
56255;SDS011;57229;51.432;-2.598;2024-02-28T15:21:59;5.28;;;4.85;;
56255;SDS011;57229;51.432;-2.598;2024-02-28T15:24:25;5.13;;;4.70;;